sensor_id;sensor_type;location;lat;lon;timestamp;pressure;altitude;pressure_sealevel;temperature;humidity
65897;BME280;52677;50.898;10.854;2023-03-21T00:00:38;98672.66;;;6.79;100.00
65897;BME280;52677;50.898;10.854;2023-03-21T00:02:39;98663.25;;;6.80;100.00
65897;BME280;52677;50.898;10.854;2023-03-21T00:04:39;98668.84;;;6.84;100.00
65897;BME280;52677;50.898;10.854;2023-03-21T00:06:40;98655.44;;;6.82;100.00
65897;BME280;52677;50.898;10.854;2023-03-21T00:08:40;98659.34;;;6.81;100.00
65897;BME280;52677;50.898;10.854;2023-03-21T00:10:40;98656.81;;;6.76;100.00
65897;BME280;52677;50.898;10.854;2023-03-21T00:12:41;98654.63;;;6.82;100.00
65897;BME280;52677;50.898;10.854;2023-03-21T00:14:41;98654.19;;;6.80;100.00
65897;BME280;52677;50.898;10.854;2023-03-21T00:16:42;98647.91;;;6.79;100.00
65897;BME280;52677;50.898;10.854;2023-03-21T00:18:46;98656.16;;;6.79;100.00
65897;BME280;52677;50.898;10.854;2023-03-21T00:22:57;98649.50;;;6.80;100.00
65897;BME280;52677;50.898;10.854;2023-03-21T00:24:57;98654.72;;;6.85;100.00
65897;BME280;52677;50.898;10.854;2023-03-21T00:26:58;98644.44;;;6.82;100.00
65897;BME280;52677;50.898;10.854;2023-03-21T00:28:58;98641.34;;;6.84;100.00
65897;BME280;52677;50.898;10.854;2023-03-21T00:30:59;98647.63;;;6.84;100.00
65897;BME280;52677;50.898;10.854;2023-03-21T00:32:59;98649.50;;;6.80;100.00
65897;BME280;52677;50.898;10.854;2023-03-21T00:35:00;98647.53;;;6.81;100.00
65897;BME280;52677;50.898;10.854;2023-03-21T00:37:00;98650.66;;;6.79;100.00
65897;BME280;52677;50.898;10.854;2023-03-21T00:39:03;98644.88;;;6.84;100.00
65897;BME280;52677;50.898;10.854;2023-03-21T00:41:07;98647.63;;;6.84;100.00
65897;BME280;52677;50.898;10.854;2023-03-21T00:43:07;98648.34;;;6.81;100.00
65897;BME280;52677;50.898;10.854;2023-03-21T00:45:08;98642.47;;;6.83;100.00
65897;BME280;52677;50.898;10.854;2023-03-21T00:47:11;98646.03;;;6.83;100.00
65897;BME280;52677;50.898;10.854;2023-03-21T00:49:11;98639.66;;;6.79;100.00
65897;BME280;52677;50.898;10.854;2023-03-21T00:51:14;98631.84;;;6.81;100.00
65897;BME280;52677;50.898;10.854;2023-03-21T00:53:20;98637.34;;;6.81;100.00
65897;BME280;52677;50.898;10.854;2023-03-21T00:55:23;98641.25;;;6.80;100.00
65897;BME280;52677;50.898;10.854;2023-03-21T00:57:23;98640.78;;;6.78;100.00
65897;BME280;52677;50.898;10.854;2023-03-21T00:59:24;98638.72;;;6.75;100.00
65897;BME280;52677;50.898;10.854;2023-03-21T01:01:24;98635.75;;;6.80;100.00
65897;BME280;52677;50.898;10.854;2023-03-21T01:03:25;98633.00;;;6.80;100.00
65897;BME280;52677;50.898;10.854;2023-03-21T01:05:28;98633.34;;;6.79;100.00
65897;BME280;52677;50.898;10.854;2023-03-21T01:07:47;98636.09;;;6.79;100.00
65897;BME280;52677;50.898;10.854;2023-03-21T01:09:52;98627.13;;;6.82;100.00
65897;BME280;52677;50.898;10.854;2023-03-21T01:11:53;98628.66;;;6.79;100.00
65897;BME280;52677;50.898;10.854;2023-03-21T01:13:53;98629.78;;;6.78;100.00
65897;BME280;52677;50.898;10.854;2023-03-21T01:15:55;98631.63;;;6.74;100.00
65897;BME280;52677;50.898;10.854;2023-03-21T01:17:56;98622.59;;;6.73;100.00
65897;BME280;52677;50.898;10.854;2023-03-21T01:19:56;98627.28;;;6.73;100.00
65897;BME280;52677;50.898;10.854;2023-03-21T01:21:57;98618.25;;;6.72;100.00
65897;BME280;52677;50.898;10.854;2023-03-21T01:23:57;98613.53;;;6.73;100.00
65897;BME280;52677;50.898;10.854;2023-03-21T01:25:57;98604.38;;;6.69;100.00
65897;BME280;52677;50.898;10.854;2023-03-21T01:27:58;98621.88;;;6.76;100.00
65897;BME280;52677;50.898;10.854;2023-03-21T01:29:58;98620.63;;;6.74;100.00
65897;BME280;52677;50.898;10.854;2023-03-21T01:31:58;98614.78;;;6.75;100.00
65897;BME280;52677;50.898;10.854;2023-03-21T01:33:59;98611.22;;;6.75;100.00
65897;BME280;52677;50.898;10.854;2023-03-21T01:36:00;98611.94;;;6.72;100.00
65897;BME280;52677;50.898;10.854;2023-03-21T01:38:00;98611.47;;;6.70;100.00
65897;BME280;52677;50.898;10.854;2023-03-21T01:40:01;98609.06;;;6.68;100.00
65897;BME280;52677;50.898;10.854;2023-03-21T01:42:02;98621.00;;;6.72;100.00
65897;BME280;52677;50.898;10.854;2023-03-21T01:44:03;98615.72;;;6.67;100.00
65897;BME280;52677;50.898;10.854;2023-03-21T01:46:07;98615.13;;;6.74;100.00
65897;BME280;52677;50.898;10.854;2023-03-21T01:48:09;98612.38;;;6.74;100.00
65897;BME280;52677;50.898;10.854;2023-03-21T01:50:10;98610.34;;;6.71;100.00
65897;BME280;52677;50.898;10.854;2023-03-21T01:52:14;98614.34;;;6.73;100.00
65897;BME280;52677;50.898;10.854;2023-03-21T01:54:22;98610.00;;;6.72;100.00
65897;BME280;52677;50.898;10.854;2023-03-21T01:56:32;98605.53;;;6.68;100.00
65897;BME280;52677;50.898;10.854;2023-03-21T01:58:34;98609.06;;;6.68;100.00
65897;BME280;52677;50.898;10.854;2023-03-21T02:00:35;98610.00;;;6.72;100.00
65897;BME280;52677;50.898;10.854;2023-03-21T02:02:36;98605.16;;;6.69;100.00
65897;BME280;52677;50.898;10.854;2023-03-21T02:04:37;98608.03;;;6.73;100.00
65897;BME280;52677;50.898;10.854;2023-03-21T02:06:55;98605.63;;;6.71;100.00
65897;BME280;52677;50.898;10.854;2023-03-21T02:09:01;98597.84;;;6.73;100.00
65897;BME280;52677;50.898;10.854;2023-03-21T02:11:03;98592.22;;;6.70;100.00
65897;BME280;52677;50.898;10.854;2023-03-21T02:13:04;98591.41;;;6.69;100.00
65897;BME280;52677;50.898;10.854;2023-03-21T02:15:10;98593.03;;;6.70;100.00
65897;BME280;52677;50.898;10.854;2023-03-21T02:17:56;98595.09;;;6.73;100.00
65897;BME280;52677;50.898;10.854;2023-03-21T02:27:17;98580.41;;;6.69;100.00
65897;BME280;52677;50.898;10.854;2023-03-21T02:32:13;98574.69;;;6.74;100.00
65897;BME280;52677;50.898;10.854;2023-03-21T02:39:23;98573.16;;;6.77;100.00
65897;BME280;52677;50.898;10.854;2023-03-21T02:41:36;98569.28;;;6.78;100.00
65897;BME280;52677;50.898;10.854;2023-03-21T02:46:17;98569.53;;;6.73;100.00
65897;BME280;52677;50.898;10.854;2023-03-21T02:48:24;98571.50;;;6.72;100.00
65897;BME280;52677;50.898;10.854;2023-03-21T02:50:49;98571.38;;;6.69;100.00
65897;BME280;52677;50.898;10.854;2023-03-21T02:52:52;98567.94;;;6.72;100.00
65897;BME280;52677;50.898;10.854;2023-03-21T02:54:54;98578.16;;;6.71;100.00
65897;BME280;52677;50.898;10.854;2023-03-21T02:56:58;98568.28;;;6.70;100.00
65897;BME280;52677;50.898;10.854;2023-03-21T02:59:00;98574.59;;;6.71;100.00
65897;BME280;52677;50.898;10.854;2023-03-21T03:01:03;98576.53;;;6.70;100.00
65897;BME280;52677;50.898;10.854;2023-03-21T03:03:05;98578.16;;;6.71;100.00
65897;BME280;52677;50.898;10.854;2023-03-21T03:05:15;98580.91;;;6.71;100.00
65897;BME280;52677;50.898;10.854;2023-03-21T03:11:44;98567.03;;;6.68;100.00
65897;BME280;52677;50.898;10.854;2023-03-21T03:16:38;98564.28;;;6.68;100.00
65897;BME280;52677;50.898;10.854;2023-03-21T03:18:50;98561.09;;;6.66;100.00
65897;BME280;52677;50.898;10.854;2023-03-21T03:21:09;98563.13;;;6.69;100.00
65897;BME280;52677;50.898;10.854;2023-03-21T03:23:51;98563.94;;;6.69;100.00
65897;BME280;52677;50.898;10.854;2023-03-21T03:28:03;98560.38;;;6.69;100.00
65897;BME280;52677;50.898;10.854;2023-03-21T03:30:06;98561.66;;;6.71;100.00
65897;BME280;52677;50.898;10.854;2023-03-21T03:32:17;98554.44;;;6.67;100.00
65897;BME280;52677;50.898;10.854;2023-03-21T03:34:23;98550.53;;;6.68;100.00
65897;BME280;52677;50.898;10.854;2023-03-21T03:36:29;98563.94;;;6.69;100.00
65897;BME280;52677;50.898;10.854;2023-03-21T03:38:35;98555.94;;;6.64;100.00
65897;BME280;52677;50.898;10.854;2023-03-21T03:40:47;98558.69;;;6.64;100.00
65897;BME280;52677;50.898;10.854;2023-03-21T03:42:50;98556.63;;;6.61;100.00
65897;BME280;52677;50.898;10.854;2023-03-21T03:44:51;98550.69;;;6.59;100.00
65897;BME280;52677;50.898;10.854;2023-03-21T03:46:57;98564.88;;;6.61;100.00
65897;BME280;52677;50.898;10.854;2023-03-21T03:49:07;98560.53;;;6.60;100.00
65897;BME280;52677;50.898;10.854;2023-03-21T03:51:19;98556.97;;;6.60;100.00
65897;BME280;52677;50.898;10.854;2023-03-21T03:53:26;98556.53;;;6.58;100.00
65897;BME280;52677;50.898;10.854;2023-03-21T03:55:28;98560.44;;;6.57;100.00
65897;BME280;52677;50.898;10.854;2023-03-21T03:57:33;98560.44;;;6.57;100.00
65897;BME280;52677;50.898;10.854;2023-03-21T03:59:38;98548.53;;;6.53;100.00
65897;BME280;52677;50.898;10.854;2023-03-21T04:01:39;98548.66;;;6.56;100.00
65897;BME280;52677;50.898;10.854;2023-03-21T04:03:42;98548.66;;;6.56;100.00
65897;BME280;52677;50.898;10.854;2023-03-21T04:05:44;98554.16;;;6.56;100.00
65897;BME280;52677;50.898;10.854;2023-03-21T04:07:48;98550.59;;;6.56;100.00
65897;BME280;52677;50.898;10.854;2023-03-21T04:09:51;98551.84;;;6.58;100.00
65897;BME280;52677;50.898;10.854;2023-03-21T04:11:52;98546.34;;;6.58;100.00
65897;BME280;52677;50.898;10.854;2023-03-21T04:13:52;98543.50;;;6.55;100.00
65897;BME280;52677;50.898;10.854;2023-03-21T04:15:52;98544.38;;;6.59;100.00
65897;BME280;52677;50.898;10.854;2023-03-21T04:17:53;98543.94;;;6.57;100.00
65897;BME280;52677;50.898;10.854;2023-03-21T04:19:53;98548.72;;;6.60;100.00
65897;BME280;52677;50.898;10.854;2023-03-21T04:21:53;98536.94;;;6.59;100.00
65897;BME280;52677;50.898;10.854;2023-03-21T04:23:54;98548.38;;;6.61;100.00
65897;BME280;52677;50.898;10.854;2023-03-21T04:25:55;98543.22;;;6.60;100.00
65897;BME280;52677;50.898;10.854;2023-03-21T04:27:55;98547.25;;;6.62;100.00
65897;BME280;52677;50.898;10.854;2023-03-21T04:29:55;98537.38;;;6.61;100.00
65897;BME280;52677;50.898;10.854;2023-03-21T04:31:56;98527.44;;;6.57;100.00
65897;BME280;52677;50.898;10.854;2023-03-21T04:33:56;98533.84;;;6.61;100.00
65897;BME280;52677;50.898;10.854;2023-03-21T04:35:58;98534.31;;;6.63;100.00
65897;BME280;52677;50.898;10.854;2023-03-21T04:37:58;98539.44;;;6.64;100.00
65897;BME280;52677;50.898;10.854;2023-03-21T04:39:59;98528.34;;;6.61;100.00
65897;BME280;52677;50.898;10.854;2023-03-21T04:41:59;98529.50;;;6.60;100.00
65897;BME280;52677;50.898;10.854;2023-03-21T04:44:00;98534.19;;;6.59;100.00
65897;BME280;52677;50.898;10.854;2023-03-21T04:46:01;98536.50;;;6.57;100.00
65897;BME280;52677;50.898;10.854;2023-03-21T04:48:01;98542.44;;;6.59;100.00
65897;BME280;52677;50.898;10.854;2023-03-21T04:50:03;98527.91;;;6.59;100.00
65897;BME280;52677;50.898;10.854;2023-03-21T04:52:04;98538.44;;;6.57;100.00
65897;BME280;52677;50.898;10.854;2023-03-21T04:54:05;98542.34;;;6.56;100.00
65897;BME280;52677;50.898;10.854;2023-03-21T04:56:06;98532.16;;;6.56;100.00
65897;BME280;52677;50.898;10.854;2023-03-21T04:58:06;98543.16;;;6.56;100.00
65897;BME280;52677;50.898;10.854;2023-03-21T05:00:07;98530.19;;;6.57;100.00
65897;BME280;52677;50.898;10.854;2023-03-21T05:02:09;98542.00;;;6.57;100.00
65897;BME280;52677;50.898;10.854;2023-03-21T05:04:12;98535.69;;;6.57;100.00
65897;BME280;52677;50.898;10.854;2023-03-21T05:06:12;98534.09;;;6.56;100.00
65897;BME280;52677;50.898;10.854;2023-03-21T05:08:13;98532.16;;;6.56;100.00
65897;BME280;52677;50.898;10.854;2023-03-21T05:10:13;98527.81;;;6.55;100.00
65897;BME280;52677;50.898;10.854;2023-03-21T05:12:14;98538.44;;;6.57;100.00
65897;BME280;52677;50.898;10.854;2023-03-21T05:14:19;98533.63;;;6.54;100.00
65897;BME280;52677;50.898;10.854;2023-03-21T05:16:19;98545.09;;;6.56;100.00
65897;BME280;52677;50.898;10.854;2023-03-21T05:18:20;98534.47;;;6.54;100.00
65897;BME280;52677;50.898;10.854;2023-03-21T05:20:24;98537.09;;;6.51;100.00
65897;BME280;52677;50.898;10.854;2023-03-21T05:22:24;98533.53;;;6.50;100.00
65897;BME280;52677;50.898;10.854;2023-03-21T05:24:27;98537.88;;;6.51;100.00
65897;BME280;52677;50.898;10.854;2023-03-21T05:26:28;98544.09;;;6.48;100.00
65897;BME280;52677;50.898;10.854;2023-03-21T05:28:28;98532.66;;;6.46;100.00
65897;BME280;52677;50.898;10.854;2023-03-21T05:30:30;98530.22;;;6.44;100.00
65897;BME280;52677;50.898;10.854;2023-03-21T05:32:31;98537.81;;;6.47;100.00
65897;BME280;52677;50.898;10.854;2023-03-21T05:34:31;98524.41;;;6.46;100.00
65897;BME280;52677;50.898;10.854;2023-03-21T05:36:32;98535.06;;;6.47;100.00
65897;BME280;52677;50.898;10.854;2023-03-21T05:38:35;98538.16;;;6.46;100.00
65897;BME280;52677;50.898;10.854;2023-03-21T05:40:35;98535.72;;;6.44;100.00
65897;BME280;52677;50.898;10.854;2023-03-21T05:42:35;98538.16;;;6.46;100.00
65897;BME280;52677;50.898;10.854;2023-03-21T05:44:36;98542.50;;;6.47;100.00
65897;BME280;52677;50.898;10.854;2023-03-21T05:46:36;98538.94;;;6.46;100.00
65897;BME280;52677;50.898;10.854;2023-03-21T05:48:37;98544.88;;;6.48;100.00
65897;BME280;52677;50.898;10.854;2023-03-21T05:50:37;98539.84;;;6.51;100.00
65897;BME280;52677;50.898;10.854;2023-03-21T05:52:38;98546.94;;;6.52;100.00
65897;BME280;52677;50.898;10.854;2023-03-21T05:54:39;98549.31;;;6.53;100.00
65897;BME280;52677;50.898;10.854;2023-03-21T05:56:39;98546.94;;;6.52;100.00
65897;BME280;52677;50.898;10.854;2023-03-21T05:58:40;98558.28;;;6.50;100.00
65897;BME280;52677;50.898;10.854;2023-03-21T06:00:40;98548.53;;;6.53;100.00
65897;BME280;52677;50.898;10.854;2023-03-21T06:02:40;98548.19;;;6.54;100.00
65897;BME280;52677;50.898;10.854;2023-03-21T06:04:41;98549.78;;;6.55;100.00
65897;BME280;52677;50.898;10.854;2023-03-21T06:06:41;98540.41;;;6.56;100.00
65897;BME280;52677;50.898;10.854;2023-03-21T06:08:41;98532.59;;;6.58;100.00
65897;BME280;52677;50.898;10.854;2023-03-21T06:10:42;98544.03;;;6.60;100.00
65897;BME280;52677;50.898;10.854;2023-03-21T06:12:42;98537.38;;;6.61;100.00
65897;BME280;52677;50.898;10.854;2023-03-21T06:14:42;98543.34;;;6.63;100.00
65897;BME280;52677;50.898;10.854;2023-03-21T06:16:43;98546.91;;;6.64;100.00
65897;BME280;52677;50.898;10.854;2023-03-21T06:18:43;98544.22;;;6.67;100.00
65897;BME280;52677;50.898;10.854;2023-03-21T06:20:43;98534.84;;;6.68;100.00
65897;BME280;52677;50.898;10.854;2023-03-21T06:22:44;98544.78;;;6.73;100.00
65897;BME280;52677;50.898;10.854;2023-03-21T06:24:44;98538.13;;;6.74;100.00
65897;BME280;52677;50.898;10.854;2023-03-21T06:26:45;98537.91;;;6.79;100.00
65897;BME280;52677;50.898;10.854;2023-03-21T06:28:45;98543.91;;;6.85;100.00
65897;BME280;52677;50.898;10.854;2023-03-21T06:30:45;98535.44;;;6.90;100.00
65897;BME280;52677;50.898;10.854;2023-03-21T06:32:46;98535.16;;;6.95;100.00
65897;BME280;52677;50.898;10.854;2023-03-21T06:34:46;98531.34;;;6.99;100.00
65897;BME280;52677;50.898;10.854;2023-03-21T06:36:46;98536.94;;;7.03;100.00
65897;BME280;52677;50.898;10.854;2023-03-21T06:38:47;98546.97;;;7.11;100.00
65897;BME280;52677;50.898;10.854;2023-03-21T06:40:48;98546.28;;;7.14;100.00
65897;BME280;52677;50.898;10.854;2023-03-21T06:42:48;98538.56;;;7.20;100.00
65897;BME280;52677;50.898;10.854;2023-03-21T06:44:48;98541.78;;;7.22;100.00
65897;BME280;52677;50.898;10.854;2023-03-21T06:46:50;98549.75;;;7.27;100.00
65897;BME280;52677;50.898;10.854;2023-03-21T06:48:50;98543.19;;;7.31;100.00
65897;BME280;52677;50.898;10.854;2023-03-21T06:50:52;98538.13;;;7.33;100.00
65897;BME280;52677;50.898;10.854;2023-03-21T06:52:53;98544.16;;;7.39;100.00
65897;BME280;52677;50.898;10.854;2023-03-21T06:54:53;98539.91;;;7.42;100.00
65897;BME280;52677;50.898;10.854;2023-03-21T06:56:53;98544.44;;;7.50;100.00
65897;BME280;52677;50.898;10.854;2023-03-21T06:58:54;98544.16;;;7.55;100.00
65897;BME280;52677;50.898;10.854;2023-03-21T07:00:57;98550.19;;;7.60;100.00
65897;BME280;52677;50.898;10.854;2023-03-21T07:02:58;98550.72;;;7.66;100.00
65897;BME280;52677;50.898;10.854;2023-03-21T07:05:00;98540.94;;;7.69;100.00
65897;BME280;52677;50.898;10.854;2023-03-21T07:07:00;98541.84;;;7.73;100.00
65897;BME280;52677;50.898;10.854;2023-03-21T07:09:00;98546.78;;;7.83;100.00
65897;BME280;52677;50.898;10.854;2023-03-21T07:11:01;98539.13;;;7.92;100.00
65897;BME280;52677;50.898;10.854;2023-03-21T07:13:01;98547.13;;;7.97;100.00
65897;BME280;52677;50.898;10.854;2023-03-21T07:15:02;98541.25;;;7.99;100.00
65897;BME280;52677;50.898;10.854;2023-03-21T07:17:03;98542.16;;;8.03;100.00
65897;BME280;52677;50.898;10.854;2023-03-21T07:19:03;98547.34;;;8.08;100.00
65897;BME280;52677;50.898;10.854;2023-03-21T07:21:06;98545.56;;;8.15;100.00
65897;BME280;52677;50.898;10.854;2023-03-21T07:23:07;98534.69;;;8.23;100.00
65897;BME280;52677;50.898;10.854;2023-03-21T07:25:08;98539.19;;;8.31;100.00
65897;BME280;52677;50.898;10.854;2023-03-21T07:27:09;98534.91;;;8.33;100.00
65897;BME280;52677;50.898;10.854;2023-03-21T07:29:09;98532.72;;;8.39;100.00
65897;BME280;52677;50.898;10.854;2023-03-21T07:31:15;98532.88;;;8.46;100.00
65897;BME280;52677;50.898;10.854;2023-03-21T07:33:15;98526.56;;;8.46;100.00
65897;BME280;52677;50.898;10.854;2023-03-21T07:35:16;98528.28;;;8.54;100.00
65897;BME280;52677;50.898;10.854;2023-03-21T07:37:17;98519.22;;;8.53;100.00
65897;BME280;52677;50.898;10.854;2023-03-21T07:39:17;98524.44;;;8.58;100.00
65897;BME280;52677;50.898;10.854;2023-03-21T07:41:19;98520.09;;;8.57;100.00
65897;BME280;52677;50.898;10.854;2023-03-21T07:43:20;98533.97;;;8.61;99.92
65897;BME280;52677;50.898;10.854;2023-03-21T07:45:20;98518.53;;;8.60;99.83
65897;BME280;52677;50.898;10.854;2023-03-21T07:47:22;98521.31;;;8.60;99.41
65897;BME280;52677;50.898;10.854;2023-03-21T07:49:23;98522.09;;;8.60;99.23
65897;BME280;52677;50.898;10.854;2023-03-21T07:51:23;98520.59;;;8.63;98.29
65897;BME280;52677;50.898;10.854;2023-03-21T07:53:23;98527.41;;;8.69;99.23
65897;BME280;52677;50.898;10.854;2023-03-21T07:55:26;98519.25;;;8.76;99.34
65897;BME280;52677;50.898;10.854;2023-03-21T07:57:26;98506.78;;;8.82;98.56
65897;BME280;52677;50.898;10.854;2023-03-21T07:59:27;98513.72;;;8.95;98.83
65897;BME280;52677;50.898;10.854;2023-03-21T08:01:27;98519.06;;;9.08;99.33
65897;BME280;52677;50.898;10.854;2023-03-21T08:03:27;98508.16;;;9.15;100.00
65897;BME280;52677;50.898;10.854;2023-03-21T08:05:33;98516.97;;;9.24;99.28
65897;BME280;52677;50.898;10.854;2023-03-21T08:07:33;98512.38;;;9.32;98.93
65897;BME280;52677;50.898;10.854;2023-03-21T08:09:34;98513.25;;;9.36;99.18
65897;BME280;52677;50.898;10.854;2023-03-21T08:11:35;98511.75;;;9.42;100.00
65897;BME280;52677;50.898;10.854;2023-03-21T08:13:35;98518.94;;;9.46;99.13
65897;BME280;52677;50.898;10.854;2023-03-21T08:15:35;98516.69;;;9.52;100.00
65897;BME280;52677;50.898;10.854;2023-03-21T08:17:37;98512.00;;;9.56;100.00
65897;BME280;52677;50.898;10.854;2023-03-21T08:19:39;98511.25;;;9.59;97.79
65897;BME280;52677;50.898;10.854;2023-03-21T08:21:39;98508.19;;;9.64;97.46
65897;BME280;52677;50.898;10.854;2023-03-21T08:23:39;98514.56;;;9.68;97.08
65897;BME280;52677;50.898;10.854;2023-03-21T08:25:40;98516.28;;;9.76;97.36
65897;BME280;52677;50.898;10.854;2023-03-21T08:27:41;98515.56;;;9.83;97.71
65897;BME280;52677;50.898;10.854;2023-03-21T08:29:41;98514.22;;;10.00;96.40
65897;BME280;52677;50.898;10.854;2023-03-21T08:31:42;98514.28;;;10.03;94.87
65897;BME280;52677;50.898;10.854;2023-03-21T08:33:42;98519.41;;;10.01;93.74
65897;BME280;52677;50.898;10.854;2023-03-21T08:35:43;98515.03;;;10.00;94.21
65897;BME280;52677;50.898;10.854;2023-03-21T08:37:43;98511.53;;;10.03;94.78
65897;BME280;52677;50.898;10.854;2023-03-21T08:39:44;98508.38;;;10.05;93.24
65897;BME280;52677;50.898;10.854;2023-03-21T08:41:44;98516.78;;;10.12;93.25
65897;BME280;52677;50.898;10.854;2023-03-21T08:43:45;98519.03;;;10.29;93.58
65897;BME280;52677;50.898;10.854;2023-03-21T08:45:45;98509.75;;;10.48;93.93
65897;BME280;52677;50.898;10.854;2023-03-21T08:47:46;98513.03;;;10.57;91.28
65897;BME280;52677;50.898;10.854;2023-03-21T08:49:46;98496.53;;;10.64;93.14
65897;BME280;52677;50.898;10.854;2023-03-21T08:51:46;98506.88;;;10.71;92.65
65897;BME280;52677;50.898;10.854;2023-03-21T08:53:47;98506.50;;;10.73;93.06
65897;BME280;52677;50.898;10.854;2023-03-21T08:55:50;98515.69;;;10.80;92.83
65897;BME280;52677;50.898;10.854;2023-03-21T08:57:50;98511.31;;;10.79;91.42
65897;BME280;52677;50.898;10.854;2023-03-21T08:59:50;98511.84;;;10.92;91.22
65897;BME280;52677;50.898;10.854;2023-03-21T09:01:51;98513.09;;;10.98;90.85
65897;BME280;52677;50.898;10.854;2023-03-21T09:03:51;98510.81;;;11.07;91.13
65897;BME280;52677;50.898;10.854;2023-03-21T09:05:53;98507.72;;;11.12;91.98
65897;BME280;52677;50.898;10.854;2023-03-21T09:07:53;98518.50;;;11.24;91.16
65897;BME280;52677;50.898;10.854;2023-03-21T09:09:53;98512.63;;;11.33;88.69
65897;BME280;52677;50.898;10.854;2023-03-21T09:11:54;98513.47;;;11.34;89.37
65897;BME280;52677;50.898;10.854;2023-03-21T09:13:54;98509.84;;;11.30;88.89
65897;BME280;52677;50.898;10.854;2023-03-21T09:15:54;98498.44;;;11.38;88.50
65897;BME280;52677;50.898;10.854;2023-03-21T09:17:57;98496.91;;;11.44;89.72
65897;BME280;52677;50.898;10.854;2023-03-21T09:20:12;98491.00;;;11.49;88.89
65897;BME280;52677;50.898;10.854;2023-03-21T09:22:17;98493.75;;;11.46;89.52
65897;BME280;52677;50.898;10.854;2023-03-21T09:24:22;98496.53;;;11.46;88.65
65897;BME280;52677;50.898;10.854;2023-03-21T09:26:24;98495.41;;;11.50;88.37
65897;BME280;52677;50.898;10.854;2023-03-21T09:28:25;98484.41;;;11.65;87.43
65897;BME280;52677;50.898;10.854;2023-03-21T09:30:26;98486.00;;;11.66;88.70
65897;BME280;52677;50.898;10.854;2023-03-21T09:32:27;98476.91;;;11.69;87.16
65897;BME280;52677;50.898;10.854;2023-03-21T09:34:28;98484.50;;;11.79;87.00
65897;BME280;52677;50.898;10.854;2023-03-21T09:36:29;98486.47;;;11.78;88.81
65897;BME280;52677;50.898;10.854;2023-03-21T09:38:34;98486.16;;;11.84;88.24
65897;BME280;52677;50.898;10.854;2023-03-21T09:41:02;98479.06;;;11.90;88.95
65897;BME280;52677;50.898;10.854;2023-03-21T09:43:32;98473.16;;;11.98;89.69
65897;BME280;52677;50.898;10.854;2023-03-21T09:47:50;98474.41;;;12.04;88.95
65897;BME280;52677;50.898;10.854;2023-03-21T09:50:01;98477.22;;;12.15;87.85
65897;BME280;52677;50.898;10.854;2023-03-21T09:52:11;98473.75;;;12.36;87.88
65897;BME280;52677;50.898;10.854;2023-03-21T09:56:22;98471.91;;;12.69;86.34
65897;BME280;52677;50.898;10.854;2023-03-21T09:58:40;98466.38;;;12.83;86.86
65897;BME280;52677;50.898;10.854;2023-03-21T10:00:44;98469.59;;;12.99;86.16
65897;BME280;52677;50.898;10.854;2023-03-21T10:02:50;98462.84;;;13.04;83.11
65897;BME280;52677;50.898;10.854;2023-03-21T10:04:52;98473.56;;;13.05;83.06
65897;BME280;52677;50.898;10.854;2023-03-21T10:06:58;98462.03;;;13.07;83.40
65897;BME280;52677;50.898;10.854;2023-03-21T10:09:01;98464.06;;;13.10;81.97
65897;BME280;52677;50.898;10.854;2023-03-21T10:11:11;98459.69;;;13.02;81.03
65897;BME280;52677;50.898;10.854;2023-03-21T10:13:18;98460.44;;;12.99;82.56
65897;BME280;52677;50.898;10.854;2023-03-21T10:15:23;98456.50;;;12.92;82.19
65897;BME280;52677;50.898;10.854;2023-03-21T10:17:39;98457.25;;;12.82;81.67
65897;BME280;52677;50.898;10.854;2023-03-21T10:19:42;98448.53;;;12.87;81.17
65897;BME280;52677;50.898;10.854;2023-03-21T10:21:47;98446.53;;;12.81;82.48
65897;BME280;52677;50.898;10.854;2023-03-21T10:23:48;98454.50;;;12.97;81.99
65897;BME280;52677;50.898;10.854;2023-03-21T10:25:56;98444.22;;;13.11;81.62
65897;BME280;52677;50.898;10.854;2023-03-21T10:27:59;98442.22;;;13.15;81.24
65897;BME280;52677;50.898;10.854;2023-03-21T10:30:02;98448.59;;;13.16;81.30
65897;BME280;52677;50.898;10.854;2023-03-21T10:32:09;98450.97;;;13.21;82.29
65897;BME280;52677;50.898;10.854;2023-03-21T10:34:22;98432.72;;;13.16;81.26
65897;BME280;52677;50.898;10.854;2023-03-21T10:36:27;98435.47;;;13.06;82.21
65897;BME280;52677;50.898;10.854;2023-03-21T10:38:29;98440.22;;;13.12;81.61
65897;BME280;52677;50.898;10.854;2023-03-21T10:40:29;98436.25;;;13.13;81.38
65897;BME280;52677;50.898;10.854;2023-03-21T10:42:31;98449.41;;;13.31;80.73
65897;BME280;52677;50.898;10.854;2023-03-21T10:44:34;98441.88;;;13.28;81.42
65897;BME280;52677;50.898;10.854;2023-03-21T10:46:34;98437.50;;;13.19;80.82
65897;BME280;52677;50.898;10.854;2023-03-21T10:48:38;98443.03;;;13.19;82.72
65897;BME280;52677;50.898;10.854;2023-03-21T10:50:40;98440.63;;;13.11;82.84
65897;BME280;52677;50.898;10.854;2023-03-21T10:52:48;98443.78;;;13.06;81.81
65897;BME280;52677;50.898;10.854;2023-03-21T10:55:16;98445.00;;;13.01;82.47
65897;BME280;52677;50.898;10.854;2023-03-21T10:57:22;98441.44;;;13.08;83.42
65897;BME280;52677;50.898;10.854;2023-03-21T10:59:24;98441.03;;;13.09;83.52
65897;BME280;52677;50.898;10.854;2023-03-21T11:01:39;98428.75;;;13.17;81.68
65897;BME280;52677;50.898;10.854;2023-03-21T11:03:44;98442.25;;;13.23;82.66
65897;BME280;52677;50.898;10.854;2023-03-21T11:05:47;98433.47;;;13.13;81.50
65897;BME280;52677;50.898;10.854;2023-03-21T11:07:59;98433.91;;;13.30;80.88
65897;BME280;52677;50.898;10.854;2023-03-21T11:10:12;98432.34;;;13.29;80.38
65897;BME280;52677;50.898;10.854;2023-03-21T11:12:15;98430.75;;;13.42;82.67
65897;BME280;52677;50.898;10.854;2023-03-21T11:14:42;98434.72;;;13.52;80.95
65897;BME280;52677;50.898;10.854;2023-03-21T11:16:43;98433.50;;;13.63;79.91